createdAt,value
2018-11-21T00:00:20.104Z,16.07
2018-11-21T00:02:49.942Z,17.23
2018-11-21T00:05:18.473Z,18.47
2018-11-21T00:07:47.332Z,18.23
2018-11-21T00:10:15.808Z,18.40
2018-11-21T00:12:48.316Z,18.47
2018-11-21T00:15:16.821Z,23.13
2018-11-21T00:17:45.412Z,21.77
2018-11-21T00:20:13.947Z,19.20
2018-11-21T00:22:42.473Z,19.43
2018-11-21T00:25:11.052Z,19.53
2018-11-21T00:27:39.694Z,20.93
2018-11-21T00:30:10.216Z,21.03
2018-11-21T00:32:38.695Z,24.37
2018-11-21T00:35:08.510Z,22.27
2018-11-21T00:37:37.035Z,22.67
2018-11-21T00:40:08.851Z,24.90
2018-11-21T00:42:38.128Z,24.00
2018-11-21T00:45:06.769Z,25.27
2018-11-21T00:47:35.318Z,25.00
2018-11-21T00:50:03.879Z,27.07
2018-11-21T00:52:33.591Z,27.53
2018-11-21T00:55:03.137Z,26.60
2018-11-21T00:57:31.755Z,26.43
2018-11-21T01:00:00.319Z,29.93
2018-11-21T01:02:28.826Z,29.67
2018-11-21T01:04:57.619Z,28.97
2018-11-21T01:07:26.355Z,28.80
2018-11-21T01:09:54.860Z,27.57
2018-11-21T01:12:23.384Z,32.63
2018-11-21T01:14:51.842Z,28.97
2018-11-21T01:17:20.316Z,32.07
2018-11-21T01:19:48.767Z,31.30
2018-11-21T01:22:17.260Z,34.17
2018-11-21T01:24:45.759Z,31.60
2018-11-21T01:27:14.230Z,34.13
2018-11-21T01:29:42.783Z,32.37
2018-11-21T01:32:11.236Z,33.97
2018-11-21T01:34:39.719Z,29.20
2018-11-21T01:37:08.280Z,37.63
2018-11-21T01:39:36.752Z,39.13
2018-11-21T01:42:05.355Z,40.30
2018-11-21T01:44:33.819Z,35.93
2018-11-21T01:47:02.333Z,34.17
2018-11-21T01:49:30.766Z,36.87
2018-11-21T01:51:59.632Z,33.43
2018-11-21T01:54:28.063Z,33.30
2018-11-21T01:56:57.005Z,34.03
2018-11-21T01:59:25.498Z,34.37
2018-11-21T02:01:55.193Z,36.10
2018-11-21T02:04:23.680Z,36.03
2018-11-21T02:06:52.154Z,31.87
2018-11-21T02:09:20.994Z,35.37
2018-11-21T02:11:49.411Z,37.43
2018-11-21T02:14:18.162Z,34.83
2018-11-21T02:16:46.891Z,34.13
2018-11-21T02:19:15.340Z,35.43
2018-11-21T02:21:43.780Z,37.17
2018-11-21T02:24:12.218Z,36.03
2018-11-21T02:26:40.704Z,36.07
2018-11-21T02:29:09.526Z,33.80
2018-11-21T02:31:37.965Z,55.30
2018-11-21T02:34:06.745Z,32.50
2018-11-21T02:36:35.209Z,40.57
2018-11-21T02:39:04.297Z,35.60
2018-11-21T02:41:32.982Z,38.43
2018-11-21T02:44:01.410Z,33.53
2018-11-21T02:46:29.834Z,35.13
2018-11-21T02:48:58.290Z,36.73
2018-11-21T02:51:26.750Z,32.63
2018-11-21T02:53:55.225Z,31.13
2018-11-21T02:57:01.059Z,34.70
2018-11-21T02:59:29.608Z,32.73
2018-11-21T03:01:58.072Z,36.37
2018-11-21T03:04:27.005Z,36.77
2018-11-21T03:06:55.522Z,36.50
2018-11-21T03:09:23.982Z,34.73
2018-11-21T03:11:52.478Z,38.83
2018-11-21T03:14:20.900Z,41.33
2018-11-21T03:16:49.377Z,42.50
2018-11-21T03:19:17.827Z,41.63
2018-11-21T03:21:46.272Z,35.57
2018-11-21T03:24:14.720Z,45.53
2018-11-21T03:26:43.190Z,50.03
2018-11-21T03:29:11.616Z,41.37
2018-11-21T03:31:40.216Z,41.33
2018-11-21T03:34:08.660Z,40.10
2018-11-21T03:36:37.085Z,40.63
2018-11-21T03:39:08.621Z,41.33
2018-11-21T03:41:37.914Z,38.97
2018-11-21T03:44:06.368Z,47.73
2018-11-21T03:46:34.872Z,43.43
2018-11-21T03:49:03.349Z,37.73
2018-11-21T03:51:32.117Z,38.53
2018-11-21T03:54:00.598Z,39.70
2018-11-21T03:56:29.324Z,37.77
2018-11-21T03:58:57.868Z,41.07
2018-11-21T04:01:26.366Z,42.83
2018-11-21T04:03:55.229Z,39.27
2018-11-21T04:06:23.859Z,42.07
2018-11-21T04:08:52.310Z,39.33
2018-11-21T04:11:20.767Z,37.50
2018-11-21T04:13:49.195Z,40.57
2018-11-21T04:16:17.867Z,44.00
2018-11-21T04:18:50.688Z,38.40
2018-11-21T04:21:19.097Z,42.23
2018-11-21T04:23:47.557Z,45.57
2018-11-21T04:26:16.816Z,38.70
2018-11-21T04:28:45.355Z,40.87
2018-11-21T04:31:14.600Z,51.83
2018-11-21T04:33:43.287Z,39.97
2018-11-21T04:36:12.529Z,50.07
2018-11-21T04:38:41.051Z,40.20
2018-11-21T04:41:09.543Z,42.60
2018-11-21T04:43:38.272Z,45.97
2018-11-21T04:46:07.100Z,44.30
2018-11-21T04:48:36.120Z,41.47
2018-11-21T04:51:04.812Z,47.30
2018-11-21T04:53:33.241Z,46.10
2018-11-21T04:56:01.680Z,42.97
2018-11-21T04:58:30.151Z,45.83
2018-11-21T05:00:58.603Z,52.23
2018-11-21T05:03:27.035Z,41.97
2018-11-21T05:05:55.466Z,42.63
2018-11-21T05:08:23.956Z,44.37
2018-11-21T05:10:52.769Z,44.20
2018-11-21T05:13:21.227Z,49.03
2018-11-21T05:15:49.869Z,45.63
2018-11-21T05:18:18.669Z,50.13
2018-11-21T05:20:47.162Z,50.13
2018-11-21T05:23:15.598Z,47.23
2018-11-21T05:25:44.445Z,49.47
2018-11-21T05:28:12.818Z,48.37
2018-11-21T05:30:41.362Z,51.23
2018-11-21T05:33:09.786Z,54.10
2018-11-21T05:35:38.213Z,52.07
2018-11-21T05:38:06.671Z,47.40
2018-11-21T05:40:35.656Z,42.50
2018-11-21T05:43:04.105Z,44.50
2018-11-21T05:45:32.792Z,44.47
2018-11-21T05:48:01.242Z,44.13
2018-11-21T05:50:29.667Z,42.30
2018-11-21T05:52:58.106Z,47.57
2018-11-21T05:55:26.521Z,43.80
2018-11-21T05:57:54.983Z,40.33
2018-11-21T06:00:23.413Z,50.17
2018-11-21T06:02:51.859Z,40.67
2018-11-21T06:05:20.281Z,46.80
2018-11-21T06:07:48.827Z,41.43
2018-11-21T06:10:17.264Z,43.57
2018-11-21T06:12:45.701Z,45.67
2018-11-21T06:15:14.150Z,45.17
2018-11-21T06:17:48.070Z,45.20
2018-11-21T06:20:12.901Z,33.97
2018-11-21T06:22:41.504Z,36.90
2018-11-21T06:25:11.172Z,40.43
2018-11-21T06:27:39.797Z,37.60
2018-11-21T06:30:09.853Z,35.20
2018-11-21T06:32:38.322Z,36.00
2018-11-21T06:35:07.729Z,41.43
2018-11-21T06:37:36.253Z,35.47
2018-11-21T06:40:06.066Z,35.13
2018-11-21T06:42:34.611Z,38.07
2018-11-21T06:45:03.508Z,36.50
2018-11-21T06:47:31.468Z,40.70
2018-11-21T06:49:59.916Z,42.73
2018-11-21T06:52:28.332Z,48.07
2018-11-21T06:54:56.779Z,47.83
2018-11-21T06:57:25.196Z,50.60
2018-11-21T06:59:53.757Z,40.60
2018-11-21T07:02:22.179Z,40.37
2018-11-21T07:04:50.600Z,54.03
2018-11-21T07:07:19.040Z,38.27
2018-11-21T07:09:47.503Z,34.87
2018-11-21T07:12:16.736Z,41.37
2018-11-21T07:14:45.152Z,37.13
2018-11-21T07:17:13.586Z,36.27
2018-11-21T07:19:42.021Z,34.83
2018-11-21T07:22:10.558Z,37.67
2018-11-21T07:24:38.968Z,39.57
2018-11-21T07:27:07.408Z,38.07
2018-11-21T07:29:35.851Z,35.63
2018-11-21T07:32:04.305Z,31.57
2018-11-21T07:34:32.745Z,38.73
2018-11-21T07:37:01.171Z,38.20
2018-11-21T07:39:29.623Z,39.33
2018-11-21T07:41:58.106Z,38.13
2018-11-21T07:44:26.530Z,48.00
2018-11-21T07:46:54.972Z,42.83
2018-11-21T07:49:23.405Z,42.33
2018-11-21T07:51:51.877Z,39.00
2018-11-21T07:54:20.293Z,57.87
2018-11-21T07:57:27.637Z,39.37
2018-11-21T08:01:02.156Z,35.97
2018-11-21T08:03:32.868Z,40.90
2018-11-21T08:06:23.359Z,40.30
2018-11-21T08:09:09.347Z,35.87
2018-11-21T08:12:02.452Z,39.47
2018-11-21T08:14:48.457Z,40.53
2018-11-21T08:17:39.124Z,54.63
2018-11-21T08:20:36.393Z,35.87
2018-11-21T08:23:26.932Z,32.90
2018-11-21T08:26:12.704Z,32.97
2018-11-21T08:28:41.133Z,36.37
2018-11-21T08:31:09.556Z,36.50
2018-11-21T08:33:38.043Z,40.40
2018-11-21T08:36:06.778Z,34.57
2018-11-21T08:38:35.234Z,39.03
2018-11-21T08:41:03.665Z,34.97
2018-11-21T08:43:32.389Z,33.13
2018-11-21T08:46:00.829Z,33.33
2018-11-21T08:48:29.252Z,38.17
2018-11-21T08:50:57.717Z,33.20
2018-11-21T08:53:26.153Z,36.47
2018-11-21T08:55:54.602Z,32.13
2018-11-21T08:58:23.025Z,33.70
2018-11-21T09:00:51.582Z,31.73
2018-11-21T09:03:20.008Z,37.50
2018-11-21T09:05:48.824Z,37.53
2018-11-21T09:08:17.278Z,39.13
2018-11-21T09:10:45.702Z,35.30
2018-11-21T09:13:14.161Z,35.90
2018-11-21T09:15:42.598Z,35.40
2018-11-21T09:18:11.078Z,36.50
2018-11-21T09:20:39.523Z,33.63
2018-11-21T09:23:07.969Z,32.63
2018-11-21T09:25:36.405Z,37.57
2018-11-21T09:28:04.832Z,41.80
2018-11-21T09:30:33.282Z,39.90
2018-11-21T09:33:01.875Z,46.40
2018-11-21T09:35:31.234Z,33.40
2018-11-21T09:37:59.665Z,32.50
2018-11-21T09:40:28.129Z,35.00
2018-11-21T09:42:56.943Z,31.90
2018-11-21T09:45:25.751Z,31.90
2018-11-21T09:47:54.577Z,46.00
2018-11-21T09:50:24.825Z,35.00
2018-11-21T09:52:53.285Z,37.67
2018-11-21T09:55:21.706Z,33.47
2018-11-21T09:57:50.343Z,42.17
2018-11-21T10:00:54.945Z,38.63
2018-11-21T10:03:25.847Z,39.80
2018-11-21T10:05:56.852Z,42.27
2018-11-21T10:08:41.308Z,33.33
2018-11-21T10:11:10.351Z,38.80
2018-11-21T10:13:38.784Z,40.07
2018-11-21T10:16:07.899Z,37.03
2018-11-21T10:18:37.464Z,36.83
2018-11-21T10:21:07.646Z,38.37
2018-11-21T10:23:36.068Z,44.37
2018-11-21T10:26:04.574Z,35.30
2018-11-21T10:28:33.381Z,37.87
2018-11-21T10:31:02.203Z,31.27
2018-11-21T10:33:30.766Z,35.00
2018-11-21T10:35:59.203Z,38.83
2018-11-21T10:38:27.627Z,36.53
2018-11-21T10:40:56.409Z,34.33
2018-11-21T10:43:28.399Z,33.17
2018-11-21T10:45:53.645Z,35.60
2018-11-21T10:48:22.132Z,37.33
2018-11-21T10:50:50.946Z,34.77
2018-11-21T10:53:19.362Z,37.10
2018-11-21T10:55:48.194Z,36.20
2018-11-21T10:58:16.626Z,34.23
2018-11-21T11:01:02.729Z,39.60
2018-11-21T11:03:33.766Z,34.30
2018-11-21T11:06:20.090Z,33.93
2018-11-21T11:09:13.395Z,31.07
2018-11-21T11:11:59.768Z,34.67
2018-11-21T11:14:47.357Z,37.37
2018-11-21T11:17:34.951Z,36.07
2018-11-21T11:20:21.185Z,37.57
2018-11-21T11:23:07.067Z,34.73
2018-11-21T11:25:53.286Z,33.07
2018-11-21T11:28:52.919Z,37.73
2018-11-21T11:31:45.738Z,33.50
2018-11-21T11:34:33.468Z,33.40
2018-11-21T11:37:30.148Z,34.50
2018-11-21T11:40:20.660Z,42.80
2018-11-21T11:43:23.424Z,35.50
2018-11-21T11:46:20.154Z,32.10
2018-11-21T11:49:19.410Z,31.97
2018-11-21T11:52:09.852Z,36.47
2018-11-21T11:54:48.921Z,39.23
2018-11-21T11:57:34.898Z,40.10
2018-11-21T12:00:22.464Z,45.87
2018-11-21T12:03:12.723Z,41.73
2018-11-21T12:06:18.419Z,48.63
2018-11-21T12:09:06.005Z,45.37
2018-11-21T12:11:55.977Z,52.03
2018-11-21T12:14:43.562Z,46.00
2018-11-21T12:17:29.679Z,49.00
2018-11-21T12:20:26.388Z,52.10
2018-11-21T12:23:19.650Z,42.90
2018-11-21T12:26:25.413Z,49.47
2018-11-21T12:29:18.827Z,48.17
2018-11-21T12:31:56.446Z,51.93
2018-11-21T12:34:52.705Z,51.07
2018-11-21T12:37:43.989Z,51.93
2018-11-21T12:40:30.369Z,50.17
2018-11-21T12:43:16.482Z,42.40
2018-11-21T12:45:56.667Z,49.20
2018-11-21T12:48:42.837Z,51.57
2018-11-21T12:51:48.276Z,44.40
2018-11-21T12:54:39.327Z,51.40
2018-11-21T12:57:25.480Z,51.07
2018-11-21T13:00:28.134Z,47.50
2018-11-21T13:03:14.461Z,42.67
2018-11-21T13:06:02.051Z,52.93
2018-11-21T13:08:58.128Z,46.97
2018-11-21T13:11:35.821Z,45.37
2018-11-21T13:14:37.062Z,47.40
2018-11-21T13:17:23.145Z,46.87
2018-11-21T13:20:19.760Z,42.33
2018-11-21T13:23:13.024Z,40.93
2018-11-21T13:25:58.902Z,45.17
2018-11-21T13:28:44.128Z,41.50
2018-11-21T13:31:30.313Z,42.30
2018-11-21T13:34:23.653Z,38.03
2018-11-21T13:37:01.721Z,39.77
2018-11-21T13:39:47.668Z,41.07
2018-11-21T13:42:50.432Z,42.83
2018-11-21T13:45:30.592Z,43.17
2018-11-21T13:48:18.045Z,41.33
2018-11-21T13:51:09.329Z,41.70
2018-11-21T13:54:02.678Z,39.83
2018-11-21T13:56:31.089Z,39.90
2018-11-21T13:58:59.509Z,41.53
2018-11-21T14:01:27.967Z,41.30
2018-11-21T14:03:56.395Z,42.70
2018-11-21T14:06:24.843Z,40.63
2018-11-21T14:08:53.268Z,53.00
2018-11-21T14:11:21.718Z,39.23
2018-11-21T14:13:50.134Z,41.00
2018-11-21T14:16:18.553Z,42.87
2018-11-21T14:18:47.104Z,44.03
2018-11-21T14:21:15.918Z,44.87
2018-11-21T14:23:44.375Z,37.23
2018-11-21T14:26:12.813Z,41.97
2018-11-21T14:28:41.329Z,38.90
2018-11-21T14:31:09.769Z,47.10
